Dominia — ICFW — position and weather

sailwx.info

Track history (hours):
 
Tides and Currents Weather Stations Pressure Air Temp Water Temp Dewpoint Dewpoint Depression Visibility Wind Speed Wind Dir Waves Ship Positions

Dominia

Last reported at 2017-Oct-22 19:57 UTC. Time now 2017-Oct-23 08:29 UTC.
Position N 37°23' W 000°41'.

Length 166 m; draft 8.9 m.

Type: Ship. MMSI: 247273400.

Date/timePositionNaut miles runAvg speedWind from/ knotsBaromVisibWave heightAir tempDewpointWater temp
2017-Oct-22 19:57N 37°23' W 000°41'512.0
2017-Oct-22 19:30N 37°22' W 000°48'611.3
2017-Oct-22 19:00N 37°26' W 000°53'  
2017-Oct-19 20:30N 37°34' W 000°59'2 4.0
2017-Oct-19 20:00N 37°33' W 001°01'3 5.9
2017-Oct-19 19:25N 37°32' W 001°06'1 0.0
2017-Oct-18 21:20N 37°33' W 001°06'1 2.0
2017-Oct-18 20:59N 37°33' W 001°05'3 6.1
2017-Oct-18 20:30N 37°32' W 001°02'510.7
2017-Oct-18 20:00N 37°30' W 000°56'611.1
2017-Oct-18 19:30N 37°26' W 000°51'510.1
2017-Oct-18 19:00N 37°24' W 000°45'510.6
2017-Oct-18 18:30N 37°24' W 000°38'710.8
2017-Oct-18 17:53N 37°25' W 000°30'411.0
2017-Oct-18 17:30N 37°26' W 000°25'611.1
2017-Oct-18 17:00N 37°27' W 000°18'611.1
2017-Oct-18 16:29N 37°28' W 000°11'2311.5
2017-Oct-18 14:30N 37°32' E 000°18'612.0
2017-Oct-18 14:00N 37°33' E 000°25'6512.7
2017-Oct-18 08:56N 37°43' E 001°46'512.8
2017-Oct-18 08:30N 37°44' E 001°52'612.8
2017-Oct-18 08:00N 37°45' E 002°00'612.7
2017-Oct-18 07:30N 37°46' E 002°08'612.5
2017-Oct-18 07:00N 37°47' E 002°16'612.6
2017-Oct-18 06:30N 37°48' E 002°24'3413.0
2017-Oct-18 03:53N 37°54' E 003°07'513.2
2017-Oct-18 03:30N 37°54' E 003°13'612.9
2017-Oct-18 03:00N 37°56' E 003°21'613.0
2017-Oct-18 02:30N 37°57' E 003°29'713.0
2017-Oct-18 02:00N 37°58' E 003°37'612.8
2017-Oct-18 01:30N 37°59' E 003°45'713.0
2017-Oct-18 01:00N 37°60' E 003°53'713.2
2017-Oct-18 00:28N 38°01' E 004°02'613.1
2017-Oct-18 00:00N 38°02' E 004°10'612.8
2017-Oct-17 23:30N 38°03' E 004°18'712.9
2017-Oct-17 22:59N 38°04' E 004°26'812.8
2017-Oct-17 22:21N 38°05' E 004°36'612.8
2017-Oct-17 21:53N 38°06' E 004°44'1212.8
2017-Oct-17 20:56N 38°08' E 004°59'512.8
2017-Oct-17 20:30N 38°09' E 005°06'612.6
2017-Oct-17 20:00N 38°10' E 005°14'612.7
2017-Oct-17 19:30N 38°11' E 005°22'712.9
2017-Oct-17 19:00N 38°12' E 005°30'613.0
2017-Oct-17 18:30N 38°13' E 005°38'13312.6
2017-Oct-17 07:55N 38°35' E 008°26'2713.0
2017-Oct-17 05:50N 38°43' E 008°60'413.1
2017-Oct-17 05:29N 38°45' E 009°04'613.0
2017-Oct-17 05:00N 38°48' E 009°11'612.9
2017-Oct-17 04:30N 38°51' E 009°18'612.6
2017-Oct-17 04:00N 38°55' E 009°25'3212.8
2017-Oct-17 01:32N 39°16' E 009°56'113.3
2017-Oct-17 01:28N 39°16' E 009°56'813.3
2017-Oct-17 00:51N 39°23' E 010°02'513.3
2017-Oct-17 00:30N 39°27' E 010°06'3312.8
2017-Oct-16 21:56N 39°54' E 010°29'612.7
2017-Oct-16 21:29N 39°59' E 010°34'1613.1
2017-Oct-16 20:14N 40°12' E 010°46'2712.7
2017-Oct-16 18:06N 40°35' E 011°05'212.7
2017-Oct-16 17:55N 40°37' E 011°07'512.5
2017-Oct-16 17:30N 40°41' E 011°11'1012.4
2017-Oct-16 16:41N 40°50' E 011°18'212.6
2017-Oct-16 16:30N 40°51' E 011°20'612.5
2017-Oct-16 16:00N 40°57' E 011°25'612.6
2017-Oct-16 15:29N 41°02' E 011°30'1112.9
2017-Oct-16 14:37N 41°11' E 011°38'1012.8
2017-Oct-16 13:48N 41°20' E 011°46'7 1.9
2017-Oct-16 10:21N 41°26' E 011°49'0 0.5
2017-Oct-16 10:00N 41°26' E 011°49'5 0.5
2017-Oct-16 00:34N 41°30' E 011°45'0 0.6
2017-Oct-16 00:27N 41°30' E 011°45'0 0.5
2017-Oct-16 00:00N 41°30' E 011°45'0 0.4
2017-Oct-15 23:29N 41°30' E 011°45'0 0.4
2017-Oct-15 22:41N 41°31' E 011°44'0 0.4
2017-Oct-15 22:30N 41°31' E 011°44'0 0.4
2017-Oct-15 21:57N 41°31' E 011°44'0 0.4
2017-Oct-15 21:29N 41°31' E 011°44'0 0.4
2017-Oct-15 20:57N 41°31' E 011°44'0 0.5
2017-Oct-15 20:30N 41°31' E 011°44'0 0.5
2017-Oct-15 20:00N 41°32' E 011°43'0 0.5
2017-Oct-15 19:30N 41°32' E 011°43'1 0.5
2017-Oct-15 17:39N 41°32' E 011°42'0 0.5
2017-Oct-15 17:25N 41°32' E 011°42'2 0.4
2017-Oct-15 13:26N 41°33' E 011°40'1 0.5
2017-Oct-15 11:38N 41°34' E 011°39'0 0.6
2017-Oct-15 11:28N 41°34' E 011°39'0 0.6
2017-Oct-15 11:00N 41°34' E 011°38'0 0.7
2017-Oct-15 10:30N 41°34' E 011°38'0 0.8
2017-Oct-15 10:00N 41°34' E 011°37'2 0.7
2017-Oct-15 07:28N 41°34' E 011°35'0 0.5
2017-Oct-15 07:00N 41°34' E 011°35'0 0.5
2017-Oct-15 06:03N 41°34' E 011°34'1 0.4
2017-Oct-15 03:53N 41°34' E 011°33'0 0.3
2017-Oct-15 03:28N 41°34' E 011°33'0 0.3
2017-Oct-15 03:00N 41°34' E 011°33'0 0.4
2017-Oct-15 02:28N 41°34' E 011°32'0 0.4
2017-Oct-15 02:00N 41°34' E 011°32'0 0.5
2017-Oct-15 01:30N 41°34' E 011°32'0 0.5
2017-Oct-15 00:32N 41°35' E 011°31'0 0.5
2017-Oct-15 00:29N 41°35' E 011°31'0 0.5
2017-Oct-14 23:57N 41°35' E 011°31'0 0.6
2017-Oct-14 23:30N 41°35' E 011°31'1 0.7
2017-Oct-14 22:39N 41°36' E 011°31'0 0.7
2017-Oct-14 22:30N 41°36' E 011°31'0 0.8
2017-Oct-14 22:00N 41°36' E 011°30'0 0.9
2017-Oct-14 21:30N 41°36' E 011°30'0 0.8
2017-Oct-14 21:00N 41°37' E 011°30'0 0.8
2017-Oct-14 20:30N 41°37' E 011°29'1 0.8
2017-Oct-14 19:49N 41°37' E 011°29'0 0.8
2017-Oct-14 19:30N 41°38' E 011°29'0 0.9
2017-Oct-14 19:00N 41°38' E 011°28'0 0.8
2017-Oct-14 18:26N 41°38' E 011°28'0 0.8
2017-Oct-14 17:55N 41°38' E 011°27'0 0.8
2017-Oct-14 17:30N 41°39' E 011°27'0 0.7
2017-Oct-14 16:57N 41°39' E 011°26'0 0.8
2017-Oct-14 16:30N 41°39' E 011°26'1 0.7
2017-Oct-14 15:50N 41°39' E 011°25'0 0.7
2017-Oct-14 15:20N 41°40' E 011°25'0 0.6
2017-Oct-14 15:00N 41°40' E 011°25'0 0.5
2017-Oct-14 14:28N 41°40' E 011°25'0 0.5
2017-Oct-14 14:00N 41°40' E 011°24'0 0.3
2017-Oct-14 13:30N 41°40' E 011°24'0 0.3
2017-Oct-14 13:00N 41°40' E 011°24'0 0.1
2017-Oct-14 10:23N 41°40' E 011°24'0 0.1
2017-Oct-14 09:58N 41°40' E 011°24'0 0.2
2017-Oct-14 09:27N 41°40' E 011°24'0 0.3
2017-Oct-14 09:00N 41°40' E 011°24'0 0.3
2017-Oct-14 08:18N 41°41' E 011°24'  
Track history (hours):
 
Tides and Currents Weather Stations Pressure Air Temp Water Temp Dewpoint Dewpoint Depression Visibility Wind Speed Wind Dir Waves Ship Positions

Dominia

Last reported at 2017-Oct-22 19:57 UTC. Time now 2017-Oct-23 08:29 UTC.
Position N 37°23' W 000°41'.

Length 166 m; draft 8.9 m.

Type: Ship. MMSI: 247273400.

Date/timePositionNaut miles runAvg speedWind from/ knotsBaromVisibWave heightAir tempDewpointWater temp
2017-Oct-22 19:57N 37°23' W 000°41'512.0
2017-Oct-22 19:30N 37°22' W 000°48'611.3
2017-Oct-22 19:00N 37°26' W 000°53'  
2017-Oct-19 20:30N 37°34' W 000°59'2 4.0
2017-Oct-19 20:00N 37°33' W 001°01'3 5.9
2017-Oct-19 19:25N 37°32' W 001°06'1 0.0
2017-Oct-18 21:20N 37°33' W 001°06'1 2.0
2017-Oct-18 20:59N 37°33' W 001°05'3 6.1
2017-Oct-18 20:30N 37°32' W 001°02'510.7
2017-Oct-18 20:00N 37°30' W 000°56'611.1
2017-Oct-18 19:30N 37°26' W 000°51'510.1
2017-Oct-18 19:00N 37°24' W 000°45'510.6
2017-Oct-18 18:30N 37°24' W 000°38'710.8
2017-Oct-18 17:53N 37°25' W 000°30'411.0
2017-Oct-18 17:30N 37°26' W 000°25'611.1
2017-Oct-18 17:00N 37°27' W 000°18'611.1
2017-Oct-18 16:29N 37°28' W 000°11'2311.5
2017-Oct-18 14:30N 37°32' E 000°18'612.0
2017-Oct-18 14:00N 37°33' E 000°25'6512.7
2017-Oct-18 08:56N 37°43' E 001°46'512.8
2017-Oct-18 08:30N 37°44' E 001°52'612.8
2017-Oct-18 08:00N 37°45' E 002°00'612.7
2017-Oct-18 07:30N 37°46' E 002°08'612.5
2017-Oct-18 07:00N 37°47' E 002°16'612.6
2017-Oct-18 06:30N 37°48' E 002°24'3413.0
2017-Oct-18 03:53N 37°54' E 003°07'513.2
2017-Oct-18 03:30N 37°54' E 003°13'612.9
2017-Oct-18 03:00N 37°56' E 003°21'613.0
2017-Oct-18 02:30N 37°57' E 003°29'713.0
2017-Oct-18 02:00N 37°58' E 003°37'612.8
2017-Oct-18 01:30N 37°59' E 003°45'713.0
2017-Oct-18 01:00N 37°60' E 003°53'713.2
2017-Oct-18 00:28N 38°01' E 004°02'613.1
2017-Oct-18 00:00N 38°02' E 004°10'612.8
2017-Oct-17 23:30N 38°03' E 004°18'712.9
2017-Oct-17 22:59N 38°04' E 004°26'812.8
2017-Oct-17 22:21N 38°05' E 004°36'612.8
2017-Oct-17 21:53N 38°06' E 004°44'1212.8
2017-Oct-17 20:56N 38°08' E 004°59'512.8
2017-Oct-17 20:30N 38°09' E 005°06'612.6
2017-Oct-17 20:00N 38°10' E 005°14'612.7
2017-Oct-17 19:30N 38°11' E 005°22'712.9
2017-Oct-17 19:00N 38°12' E 005°30'613.0
2017-Oct-17 18:30N 38°13' E 005°38'13312.6
2017-Oct-17 07:55N 38°35' E 008°26'2713.0
2017-Oct-17 05:50N 38°43' E 008°60'413.1
2017-Oct-17 05:29N 38°45' E 009°04'613.0
2017-Oct-17 05:00N 38°48' E 009°11'612.9
2017-Oct-17 04:30N 38°51' E 009°18'612.6
2017-Oct-17 04:00N 38°55' E 009°25'3212.8
2017-Oct-17 01:32N 39°16' E 009°56'113.3
2017-Oct-17 01:28N 39°16' E 009°56'813.3
2017-Oct-17 00:51N 39°23' E 010°02'513.3
2017-Oct-17 00:30N 39°27' E 010°06'3312.8
2017-Oct-16 21:56N 39°54' E 010°29'612.7
2017-Oct-16 21:29N 39°59' E 010°34'1613.1
2017-Oct-16 20:14N 40°12' E 010°46'2712.7
2017-Oct-16 18:06N 40°35' E 011°05'212.7
2017-Oct-16 17:55N 40°37' E 011°07'512.5
2017-Oct-16 17:30N 40°41' E 011°11'1012.4
2017-Oct-16 16:41N 40°50' E 011°18'212.6
2017-Oct-16 16:30N 40°51' E 011°20'612.5
2017-Oct-16 16:00N 40°57' E 011°25'612.6
2017-Oct-16 15:29N 41°02' E 011°30'1112.9
2017-Oct-16 14:37N 41°11' E 011°38'1012.8
2017-Oct-16 13:48N 41°20' E 011°46'7 1.9
2017-Oct-16 10:21N 41°26' E 011°49'0 0.5
2017-Oct-16 10:00N 41°26' E 011°49'5 0.5
2017-Oct-16 00:34N 41°30' E 011°45'0 0.6
2017-Oct-16 00:27N 41°30' E 011°45'0 0.5
2017-Oct-16 00:00N 41°30' E 011°45'0 0.4
2017-Oct-15 23:29N 41°30' E 011°45'0 0.4
2017-Oct-15 22:41N 41°31' E 011°44'0 0.4
2017-Oct-15 22:30N 41°31' E 011°44'0 0.4
2017-Oct-15 21:57N 41°31' E 011°44'0 0.4
2017-Oct-15 21:29N 41°31' E 011°44'0 0.4
2017-Oct-15 20:57N 41°31' E 011°44'0 0.5
2017-Oct-15 20:30N 41°31' E 011°44'0 0.5
2017-Oct-15 20:00N 41°32' E 011°43'0 0.5
2017-Oct-15 19:30N 41°32' E 011°43'1 0.5
2017-Oct-15 17:39N 41°32' E 011°42'0 0.5
2017-Oct-15 17:25N 41°32' E 011°42'2 0.4
2017-Oct-15 13:26N 41°33' E 011°40'1 0.5
2017-Oct-15 11:38N 41°34' E 011°39'0 0.6
2017-Oct-15 11:28N 41°34' E 011°39'0 0.6
2017-Oct-15 11:00N 41°34' E 011°38'0 0.7
2017-Oct-15 10:30N 41°34' E 011°38'0 0.8
2017-Oct-15 10:00N 41°34' E 011°37'2 0.7
2017-Oct-15 07:28N 41°34' E 011°35'0 0.5
2017-Oct-15 07:00N 41°34' E 011°35'0 0.5
2017-Oct-15 06:03N 41°34' E 011°34'1 0.4
2017-Oct-15 03:53N 41°34' E 011°33'0 0.3
2017-Oct-15 03:28N 41°34' E 011°33'0 0.3
2017-Oct-15 03:00N 41°34' E 011°33'0 0.4
2017-Oct-15 02:28N 41°34' E 011°32'0 0.4
2017-Oct-15 02:00N 41°34' E 011°32'0 0.5
2017-Oct-15 01:30N 41°34' E 011°32'0 0.5
2017-Oct-15 00:32N 41°35' E 011°31'0 0.5
2017-Oct-15 00:29N 41°35' E 011°31'0 0.5
2017-Oct-14 23:57N 41°35' E 011°31'0 0.6
2017-Oct-14 23:30N 41°35' E 011°31'1 0.7
2017-Oct-14 22:39N 41°36' E 011°31'0 0.7
2017-Oct-14 22:30N 41°36' E 011°31'0 0.8
2017-Oct-14 22:00N 41°36' E 011°30'0 0.9
2017-Oct-14 21:30N 41°36' E 011°30'0 0.8
2017-Oct-14 21:00N 41°37' E 011°30'0 0.8
2017-Oct-14 20:30N 41°37' E 011°29'1 0.8
2017-Oct-14 19:49N 41°37' E 011°29'0 0.8
2017-Oct-14 19:30N 41°38' E 011°29'0 0.9
2017-Oct-14 19:00N 41°38' E 011°28'0 0.8
2017-Oct-14 18:26N 41°38' E 011°28'0 0.8
2017-Oct-14 17:55N 41°38' E 011°27'0 0.8
2017-Oct-14 17:30N 41°39' E 011°27'0 0.7
2017-Oct-14 16:57N 41°39' E 011°26'0 0.8
2017-Oct-14 16:30N 41°39' E 011°26'1 0.7
2017-Oct-14 15:50N 41°39' E 011°25'0 0.7
2017-Oct-14 15:20N 41°40' E 011°25'0 0.6
2017-Oct-14 15:00N 41°40' E 011°25'0 0.5
2017-Oct-14 14:28N 41°40' E 011°25'0 0.5
2017-Oct-14 14:00N 41°40' E 011°24'0 0.3
2017-Oct-14 13:30N 41°40' E 011°24'0 0.3
2017-Oct-14 13:00N 41°40' E 011°24'0 0.1
2017-Oct-14 10:23N 41°40' E 011°24'0 0.1
2017-Oct-14 09:58N 41°40' E 011°24'0 0.2
2017-Oct-14 09:27N 41°40' E 011°24'0 0.3
2017-Oct-14 09:00N 41°40' E 011°24'0 0.3
2017-Oct-14 08:18N 41°41' E 011°24'  

Dump ship's entire track history